Terminal Aerodrome Forecast
Issued by NWS Omaha/Valley, NE

Home | Current Version | Previous Version | Text Only | Print | Product List | Glossary On
Versions: 1 2 3 4 5 6 7 8 9 10 11 12 13 14 15 16 17 18 19 20 21 22 23 24 25 26 27 28 29 30 31
000
FTUS43 KOAX 292129 AAC
TAFOFK
TAF AMD
KOFK 292129Z 2921/3018 34020G28KT P6SM VCSH OVC015
      TEMPO 2922/3002 4SM -SHRA
     FM300500 34015G21KT P6SM OVC025
     FM301300 34013KT P6SM SCT100=

USA.gov is the U.S. government's official web portal to all federal, state and local government web resources and services.